Time;durP1;ratioP1;P1;durP2;ratioP2;P2;SDS_P1;SDS_P2;PMS_P1;PMS_P2;Temp;Humidity;BMP_temperature;BMP_pressure;BME280_temperature;BME280_humidity;BME280_pressure;Samples;Min_cycle;Max_cycle;Signal;HPM_P1;HPM_P2
2024/04/18 00:02:36;;;;;;;;;;;;;;;5.69;68.90;97368.19;5449557;26;19952;-71
2024/04/18 00:05:27;;;;;;;;;;;;;;;5.52;69.63;97374.13;5412770;26;19957;-72
2024/04/18 00:08:15;;;;;;;;;;;;;;;5.65;69.13;97361.81;5444246;26;19957;-72
2024/04/18 00:11:04;;;;;;;;;;;;;;;5.64;68.89;97365.59;5433418;26;19932;-71
2024/04/18 00:13:58;;;;;;;;;;;;;;;5.61;69.28;97363.50;5435837;26;20334;-72
2024/04/18 00:16:57;;;;;;;;;;;;;;;5.55;70.08;97372.75;5423762;26;20059;-72
2024/04/18 00:19:47;;;;;;;;;;;;;;;5.66;69.93;97372.28;5427626;26;20256;-76
2024/04/18 00:22:52;;;;;;;;;;;;;;;5.66;69.58;97382.28;5404389;26;19940;-76
2024/04/18 00:25:46;;;;;;;;;;;;;;;5.63;69.59;97378.25;5440063;26;20084;-75
2024/04/18 00:28:44;;;;;;;;;;;;;;;5.80;68.99;97383.13;5441679;26;19956;-76
2024/04/18 00:31:37;;;;;;;;;;;;;;;5.71;68.91;97374.91;5413094;26;19928;-76
2024/04/18 00:34:26;;;;;;;;;;;;;;;5.72;69.02;97373.03;5444578;26;19933;-76
2024/04/18 00:37:17;;;;;;;;;;;;;;;5.77;68.97;97378.34;5416134;26;19929;-75
2024/04/18 00:40:22;;;;;;;;;;;;;;;5.83;68.86;97374.47;5442763;26;19936;-76
2024/04/18 00:43:09;;;;;;;;;;;;;;;5.71;69.01;97380.31;5445080;26;19943;-75
2024/04/18 00:46:02;;;;;;;;;;;;;;;5.65;69.43;97376.09;5444500;26;19928;-76
2024/04/18 00:48:52;;;;;;;;;;;;;;;5.76;69.01;97376.75;5447187;26;19936;-76
2024/04/18 00:51:42;;;;;;;;;;;;;;;5.80;69.20;97369.66;5432057;26;19940;-76
2024/04/18 00:54:44;;;;;;;;;;;;;;;5.87;69.02;97375.50;5419295;26;19993;-76
2024/04/18 00:57:33;;;;;;;;;;;;;;;5.85;68.92;97374.97;5420506;26;19937;-76
2024/04/18 01:00:23;;;;;;;;;;;;;;;5.83;69.33;97379.06;5442352;26;19997;-75
2024/04/18 01:03:13;;;;;;;;;;;;;;;5.82;69.38;97370.19;5445839;26;20276;-76
2024/04/18 01:06:01;;;;;;;;;;;;;;;5.82;69.18;97372.06;5412550;26;19929;-76
2024/04/18 01:09:10;;;;;;;;;;;;;;;5.84;68.73;97375.25;5432142;26;19928;-76
2024/04/18 01:12:23;;;;;;;;;;;;;;;5.75;68.53;97380.50;5442414;26;19943;-76
2024/04/18 01:15:10;;;;;;;;;;;;;;;5.64;69.01;97370.97;5439488;26;19935;-75
2024/04/18 01:18:00;;;;;;;;;;;;;;;5.66;69.17;97375.00;5399590;26;20352;-75
2024/04/18 01:20:47;;;;;;;;;;;;;;;5.65;69.40;97381.47;5436499;26;19944;-75
2024/04/18 01:23:40;;;;;;;;;;;;;;;5.64;69.89;97374.47;5439040;26;19944;-75
2024/04/18 01:26:30;;;;;;;;;;;;;;;5.60;69.61;97373.47;5411169;26;19947;-75
2024/04/18 01:29:20;;;;;;;;;;;;;;;5.73;69.68;97378.13;5432365;26;20354;-75
2024/04/18 01:32:25;;;;;;;;;;;;;;;5.73;69.40;97374.63;5443863;26;19936;-81
2024/04/18 01:35:16;;;;;;;;;;;;;;;5.81;69.14;97379.34;5443760;26;19955;-79
2024/04/18 01:38:09;;;;;;;;;;;;;;;5.80;69.55;97380.44;5444683;26;19928;-79
2024/04/18 01:41:04;;;;;;;;;;;;;;;5.60;69.96;97384.25;5447876;26;19929;-77
2024/04/18 01:44:16;;;;;;;;;;;;;;;5.64;69.98;97379.84;5441101;26;20279;-77
2024/04/18 01:47:44;;;;;;;;;;;;;;;5.69;69.74;97390.56;5438189;26;19935;-77
2024/04/18 01:50:32;;;;;;;;;;;;;;;5.52;70.24;97377.59;5430679;26;19929;-78
2024/04/18 01:53:21;;;;;;;;;;;;;;;5.56;69.83;97375.13;5438308;26;19928;-79
2024/04/18 01:56:15;;;;;;;;;;;;;;;5.53;69.99;97378.41;5440542;26;19936;-77
2024/04/18 01:59:06;;;;;;;;;;;;;;;5.65;69.94;97373.41;5450204;26;19939;-77
2024/04/18 02:01:58;;;;;;;;;;;;;;;5.58;69.99;97375.63;5440450;26;19941;-77
2024/04/18 02:08:06;;;;;;;;;;;;;;;5.56;69.92;97385.91;5417718;26;20026;-78
2024/04/18 02:11:06;;;;;;;;;;;;;;;5.53;69.97;97383.78;5459580;26;19959;-79
2024/04/18 02:13:59;;;;;;;;;;;;;;;5.48;70.33;97392.75;5433808;26;19948;-78
2024/04/18 02:16:49;;;;;;;;;;;;;;;5.56;70.14;97382.44;5436489;26;20621;-77
2024/04/18 02:19:45;;;;;;;;;;;;;;;5.56;70.58;97391.31;5435339;26;20437;-76
2024/04/18 02:22:53;;;;;;;;;;;;;;;5.51;70.41;97386.00;5433398;26;19929;-76
2024/04/18 02:26:13;;;;;;;;;;;;;;;5.50;70.62;97393.28;5438002;26;19948;-78
2024/04/18 02:29:03;;;;;;;;;;;;;;;5.50;70.50;97395.16;5413825;26;19935;-78
2024/04/18 02:31:50;;;;;;;;;;;;;;;5.51;70.21;97394.88;5441152;26;19928;-78
2024/04/18 02:34:55;;;;;;;;;;;;;;;5.49;70.33;97393.56;5435588;26;19941;-77
2024/04/18 02:37:45;;;;;;;;;;;;;;;5.41;70.65;97392.31;5440073;26;19997;-80
2024/04/18 02:40:35;;;;;;;;;;;;;;;5.46;70.33;97397.63;5441816;26;19940;-81
2024/04/18 02:43:22;;;;;;;;;;;;;;;5.41;70.71;97394.22;5413447;26;22145;-71
2024/04/18 02:46:13;;;;;;;;;;;;;;;5.28;71.55;97401.13;5440594;26;19939;-71
2024/04/18 02:49:00;;;;;;;;;;;;;;;5.29;71.23;97394.63;5451788;26;20469;-70
2024/04/18 02:51:53;;;;;;;;;;;;;;;5.30;71.08;97395.44;5442760;26;20231;-70
2024/04/18 02:55:01;;;;;;;;;;;;;;;5.33;70.96;97394.88;5440975;26;19939;-71
2024/04/18 02:57:49;;;;;;;;;;;;;;;5.28;71.17;97393.03;5442667;26;19957;-70
2024/04/18 03:00:38;;;;;;;;;;;;;;;5.33;71.50;97397.56;5421045;26;19929;-70
2024/04/18 03:03:29;;;;;;;;;;;;;;;5.43;71.08;97395.53;5436624;26;19976;-70
2024/04/18 03:06:25;;;;;;;;;;;;;;;5.11;71.90;97403.47;5428152;26;20286;-71
2024/04/18 03:09:19;;;;;;;;;;;;;;;5.29;71.24;97401.91;5442130;26;20356;-72
2024/04/18 03:12:15;;;;;;;;;;;;;;;5.23;71.45;97406.56;5437511;26;19929;-72
2024/04/18 03:15:03;;;;;;;;;;;;;;;5.21;71.83;97398.75;5435831;26;19965;-70
2024/04/18 03:18:02;;;;;;;;;;;;;;;5.22;71.91;97407.66;5441834;26;19928;-70
2024/04/18 03:20:53;;;;;;;;;;;;;;;5.26;71.45;97412.16;5407909;26;20462;-71
2024/04/18 03:24:02;;;;;;;;;;;;;;;5.20;71.75;97409.81;5402817;26;19929;-71
2024/04/18 03:27:06;;;;;;;;;;;;;;;5.16;72.06;97417.69;5451583;26;19960;-70
2024/04/18 03:29:54;;;;;;;;;;;;;;;5.17;72.36;97413.13;5400318;26;19936;-72
2024/04/18 03:32:55;;;;;;;;;;;;;;;5.17;72.20;97408.53;5434352;26;20380;-71
2024/04/18 03:35:49;;;;;;;;;;;;;;;5.09;71.84;97416.44;5440210;26;19944;-71
2024/04/18 03:38:42;;;;;;;;;;;;;;;5.16;71.90;97417.69;5418937;26;20347;-71
2024/04/18 03:41:32;;;;;;;;;;;;;;;5.21;71.60;97414.91;5445937;26;19935;-71
2024/04/18 03:44:40;;;;;;;;;;;;;;;4.95;72.41;97419.00;5429290;26;19941;-71
2024/04/18 03:47:32;;;;;;;;;;;;;;;5.02;72.45;97421.38;5412723;26;19928;-71
2024/04/18 03:50:31;;;;;;;;;;;;;;;5.05;72.17;97421.59;5434209;26;19952;-71
2024/04/18 03:53:40;;;;;;;;;;;;;;;5.01;72.46;97423.25;5437975;26;19945;-72
2024/04/18 03:56:36;;;;;;;;;;;;;;;4.96;72.61;97428.72;5438888;26;19935;-71
2024/04/18 03:59:23;;;;;;;;;;;;;;;4.93;73.25;97429.25;5414470;26;19948;-72
2024/04/18 04:02:15;;;;;;;;;;;;;;;5.00;73.34;97432.41;5430708;26;19928;-72
2024/04/18 04:05:03;;;;;;;;;;;;;;;5.05;73.14;97435.03;5403972;26;19929;-72
2024/04/18 04:07:53;;;;;;;;;;;;;;;5.04;72.39;97444.22;5409662;26;19997;-72
2024/04/18 04:11:01;;;;;;;;;;;;;;;4.98;72.71;97448.06;5437924;26;19944;-71
2024/04/18 04:13:51;;;;;;;;;;;;;;;4.90;73.29;97451.34;5429782;26;19929;-72
2024/04/18 04:16:38;;;;;;;;;;;;;;;4.98;72.67;97454.25;5444443;26;20005;-71
2024/04/18 04:19:42;;;;;;;;;;;;;;;4.90;72.52;97451.34;5439425;26;19936;-73
2024/04/18 04:22:32;;;;;;;;;;;;;;;4.93;72.62;97456.97;5434957;26;19932;-73
2024/04/18 04:25:38;;;;;;;;;;;;;;;4.98;72.44;97458.81;5437073;26;20451;-72
2024/04/18 04:28:28;;;;;;;;;;;;;;;5.03;72.04;97469.53;5446695;26;19952;-72
2024/04/18 04:31:16;;;;;;;;;;;;;;;4.73;73.30;97476.81;5441259;26;19935;-76
2024/04/18 04:34:06;;;;;;;;;;;;;;;4.91;72.56;97475.31;5436266;26;19928;-75
2024/04/18 04:36:56;;;;;;;;;;;;;;;4.88;72.77;97480.47;5420902;26;19936;-78
2024/04/18 04:39:47;;;;;;;;;;;;;;;4.90;72.61;97486.34;5420952;26;19939;-75
2024/04/18 04:42:42;;;;;;;;;;;;;;;4.88;72.72;97492.03;5440869;26;19992;-76
2024/04/18 04:45:30;;;;;;;;;;;;;;;4.89;72.58;97490.94;5447777;26;20001;-74
2024/04/18 04:48:26;;;;;;;;;;;;;;;4.91;72.93;97494.16;5448618;26;19935;-73
2024/04/18 04:51:30;;;;;;;;;;;;;;;5.00;72.19;97499.72;5442106;26;20402;-70
2024/04/18 04:54:26;;;;;;;;;;;;;;;5.00;72.10;97505.09;5439319;26;19933;-71
2024/04/18 04:57:14;;;;;;;;;;;;;;;5.08;72.30;97512.56;5448711;26;20330;-72
2024/04/18 05:00:04;;;;;;;;;;;;;;;5.10;72.02;97513.06;5416863;26;20366;-70
2024/04/18 05:03:11;;;;;;;;;;;;;;;4.92;72.78;97513.81;5441658;26;20372;-73
2024/04/18 05:06:13;;;;;;;;;;;;;;;4.92;73.03;97524.56;5443653;26;19956;-72
2024/04/18 05:09:01;;;;;;;;;;;;;;;5.05;72.51;97517.69;5443411;26;20020;-74
2024/04/18 05:11:53;;;;;;;;;;;;;;;5.02;72.88;97529.06;5426576;26;19928;-73
2024/04/18 05:14:53;;;;;;;;;;;;;;;4.96;73.03;97525.63;5454616;26;19948;-73
2024/04/18 05:18:01;;;;;;;;;;;;;;;5.08;73.04;97534.09;5436903;26;19933;-72
2024/04/18 05:20:51;;;;;;;;;;;;;;;4.88;73.11;97535.09;5417603;26;19953;-74
2024/04/18 05:23:40;;;;;;;;;;;;;;;4.91;73.45;97544.50;5424756;26;19929;-74
2024/04/18 05:26:32;;;;;;;;;;;;;;;5.07;72.96;97542.47;5444903;26;19936;-73
2024/04/18 05:32:30;;;;;;;;;;;;;;;4.99;72.93;97551.94;5422061;26;19932;-71
2024/04/18 05:35:32;;;;;;;;;;;;;;;5.15;72.47;97553.41;5411069;26;19961;-72
2024/04/18 05:38:22;;;;;;;;;;;;;;;5.03;72.60;97563.78;5446929;26;19929;-72
2024/04/18 05:41:12;;;;;;;;;;;;;;;5.17;71.85;97563.91;5449764;26;19928;-70
2024/04/18 05:44:11;;;;;;;;;;;;;;;5.23;71.96;97563.56;5420947;26;20427;-70
2024/04/18 05:47:03;;;;;;;;;;;;;;;5.10;72.24;97566.13;5424156;26;19961;-72
2024/04/18 05:49:54;;;;;;;;;;;;;;;5.20;72.15;97580.28;5449557;26;19944;-72
2024/04/18 05:52:44;;;;;;;;;;;;;;;5.21;72.12;97576.50;5427931;26;19941;-72
2024/04/18 05:55:43;;;;;;;;;;;;;;;5.30;71.64;97575.91;5451702;26;19964;-71
2024/04/18 05:58:33;;;;;;;;;;;;;;;5.29;71.61;97574.31;5451654;26;20322;-71
2024/04/18 06:01:23;;;;;;;;;;;;;;;5.14;71.76;97581.44;5422768;26;19928;-72
2024/04/18 06:04:16;;;;;;;;;;;;;;;5.07;72.53;97590.94;5414333;26;19928;-71
2024/04/18 06:07:25;;;;;;;;;;;;;;;5.02;72.12;97589.09;5446555;26;19944;-73
2024/04/18 06:10:16;;;;;;;;;;;;;;;5.12;71.72;97589.00;5449217;26;19928;-71
2024/04/18 06:13:08;;;;;;;;;;;;;;;5.01;71.98;97598.25;5421991;26;19936;-72
2024/04/18 06:16:00;;;;;;;;;;;;;;;5.12;71.94;97596.28;5440486;26;19935;-73
2024/04/18 06:19:10;;;;;;;;;;;;;;;5.26;71.55;97592.63;5436826;26;19932;-73
2024/04/18 06:22:02;;;;;;;;;;;;;;;5.17;71.36;97597.03;5421221;26;19929;-73
2024/04/18 06:24:53;;;;;;;;;;;;;;;5.22;71.34;97602.38;5430918;26;19936;-73
2024/04/18 06:27:44;;;;;;;;;;;;;;;5.21;71.03;97606.13;5460416;26;19934;-73
2024/04/18 06:30:34;;;;;;;;;;;;;;;5.28;71.23;97608.50;5414329;26;19933;-75
2024/04/18 06:33:25;;;;;;;;;;;;;;;5.36;70.78;97615.16;5448288;26;19997;-73
2024/04/18 06:36:15;;;;;;;;;;;;;;;5.26;71.03;97616.84;5432197;26;19929;-74
2024/04/18 06:39:08;;;;;;;;;;;;;;;5.33;71.44;97621.13;5442469;26;19935;-73
2024/04/18 06:41:59;;;;;;;;;;;;;;;5.41;70.86;97621.31;5420120;26;19936;-75
2024/04/18 06:44:49;;;;;;;;;;;;;;;5.29;71.64;97625.47;5414397;26;19935;-74
2024/04/18 06:47:39;;;;;;;;;;;;;;;5.43;71.03;97634.47;5434217;26;20279;-73
2024/04/18 06:50:29;;;;;;;;;;;;;;;5.45;70.87;97627.72;5420613;26;19929;-73
2024/04/18 06:53:19;;;;;;;;;;;;;;;5.50;70.33;97630.38;5452602;26;19929;-75
2024/04/18 06:56:12;;;;;;;;;;;;;;;5.75;70.47;97632.00;5423112;26;20017;-73
2024/04/18 06:59:02;;;;;;;;;;;;;;;5.82;70.25;97633.56;5424224;26;19928;-73
2024/04/18 07:02:04;;;;;;;;;;;;;;;5.96;69.65;97635.28;5449731;26;19928;-74
2024/04/18 07:05:13;;;;;;;;;;;;;;;5.95;69.58;97641.75;5440371;26;19928;-73
2024/04/18 07:08:10;;;;;;;;;;;;;;;5.97;69.82;97636.09;5446724;26;19940;-74
2024/04/18 07:11:01;;;;;;;;;;;;;;;6.06;69.05;97639.75;5450356;26;19941;-73
2024/04/18 07:13:53;;;;;;;;;;;;;;;6.11;69.18;97650.47;5407020;26;20396;-73
2024/04/18 07:16:52;;;;;;;;;;;;;;;6.16;68.83;97647.72;5452208;26;19929;-75
2024/04/18 07:19:51;;;;;;;;;;;;;;;6.19;68.93;97657.94;5454186;26;20681;-74
2024/04/18 07:23:03;;;;;;;;;;;;;;;6.18;68.88;97656.34;5445165;26;19998;-80
2024/04/18 07:25:53;;;;;;;;;;;;;;;6.13;68.35;97667.19;5438662;26;19932;-80
2024/04/18 07:28:48;;;;;;;;;;;;;;;5.84;69.79;97663.72;5458579;26;19928;-83
2024/04/18 07:31:40;;;;;;;;;;;;;;;6.09;68.75;97674.25;5445638;26;19940;-80
2024/04/18 07:34:33;;;;;;;;;;;;;;;6.04;69.18;97674.31;5448570;26;19998;-70
2024/04/18 07:37:31;;;;;;;;;;;;;;;5.95;69.77;97679.50;5447349;26;19966;-70
2024/04/18 07:40:22;;;;;;;;;;;;;;;6.17;69.30;97684.38;5446624;26;19940;-69
2024/04/18 07:43:11;;;;;;;;;;;;;;;6.16;69.17;97687.38;5432274;26;20260;-71
2024/04/18 07:46:01;;;;;;;;;;;;;;;6.20;68.84;97693.81;5416439;26;20052;-70
2024/04/18 07:48:54;;;;;;;;;;;;;;;6.26;68.97;97695.34;5422846;26;19960;-71
2024/04/18 07:51:44;;;;;;;;;;;;;;;6.25;68.82;97699.94;5437489;26;19940;-71
2024/04/18 07:54:38;;;;;;;;;;;;;;;6.30;68.45;97702.59;5446983;26;19952;-71
2024/04/18 07:57:28;;;;;;;;;;;;;;;6.44;68.33;97693.78;5440327;26;19997;-71
2024/04/18 08:00:19;;;;;;;;;;;;;;;6.70;68.00;97697.75;5448081;26;19929;-72
2024/04/18 08:03:10;;;;;;;;;;;;;;;6.89;66.33;97699.66;5418411;26;19932;-71
2024/04/18 08:06:05;;;;;;;;;;;;;;;6.98;66.89;97706.00;5402810;26;19935;-70
2024/04/18 08:08:58;;;;;;;;;;;;;;;6.91;66.20;97717.16;5447325;26;19936;-72
2024/04/18 08:11:51;;;;;;;;;;;;;;;6.97;66.38;97715.19;5397588;26;19936;-71
2024/04/18 08:15:02;;;;;;;;;;;;;;;6.92;66.24;97716.06;5447593;26;20314;-71
2024/04/18 08:17:56;;;;;;;;;;;;;;;7.01;66.15;97725.13;5436680;26;19935;-71
2024/04/18 08:20:46;;;;;;;;;;;;;;;7.07;65.97;97723.94;5429763;26;19961;-71
2024/04/18 08:23:39;;;;;;;;;;;;;;;7.04;65.90;97729.16;5407806;26;19937;-72
2024/04/18 08:26:28;;;;;;;;;;;;;;;7.01;65.93;97729.72;5428989;26;20295;-71
2024/04/18 08:29:22;;;;;;;;;;;;;;;7.14;64.98;97734.41;5436374;26;20362;-71
2024/04/18 08:32:12;;;;;;;;;;;;;;;7.02;65.80;97737.53;5444929;26;19932;-73
2024/04/18 08:35:02;;;;;;;;;;;;;;;7.09;64.91;97735.28;5442193;26;19936;-73
2024/04/18 08:37:52;;;;;;;;;;;;;;;7.21;64.91;97736.72;5449525;26;19928;-72
2024/04/18 08:40:46;;;;;;;;;;;;;;;7.33;64.29;97740.56;5423389;26;19936;-71
2024/04/18 08:43:37;;;;;;;;;;;;;;;7.37;64.02;97742.69;5440983;26;19940;-73
2024/04/18 08:46:26;;;;;;;;;;;;;;;7.64;63.32;97739.28;5410315;26;19928;-72
2024/04/18 08:49:16;;;;;;;;;;;;;;;7.48;63.99;97744.16;5418041;26;20264;-74
2024/04/18 08:52:07;;;;;;;;;;;;;;;7.41;63.73;97754.53;5422604;26;19928;-74
2024/04/18 08:54:57;;;;;;;;;;;;;;;7.63;63.41;97752.00;5441097;26;19991;-74
2024/04/18 08:57:51;;;;;;;;;;;;;;;8.06;62.07;97754.50;5450227;26;20437;-74
2024/04/18 09:00:48;;;;;;;;;;;;;;;7.96;62.00;97752.00;5450430;26;19929;-74
2024/04/18 09:03:38;;;;;;;;;;;;;;;8.10;60.31;97752.81;5415333;26;19936;-74
2024/04/18 09:09:40;;;;;;;;;;;;;;;7.79;62.35;97763.38;5444646;26;19997;-73
2024/04/18 09:12:31;;;;;;;;;;;;;;;8.02;61.62;97765.13;5437029;26;19993;-74
2024/04/18 09:15:23;;;;;;;;;;;;;;;8.09;61.37;97765.53;5445661;26;20318;-74
2024/04/18 09:18:13;;;;;;;;;;;;;;;7.69;62.33;97772.44;5415342;26;19941;-74
2024/04/18 09:21:03;;;;;;;;;;;;;;;7.86;61.58;97777.31;5448943;26;20590;-74
2024/04/18 09:23:53;;;;;;;;;;;;;;;7.84;60.55;97777.63;5458301;26;19932;-74
2024/04/18 09:26:43;;;;;;;;;;;;;;;7.76;60.41;97772.06;5440760;26;19965;-73
2024/04/18 09:29:32;;;;;;;;;;;;;;;7.75;60.76;97776.69;5445681;26;19928;-74
2024/04/18 09:32:25;;;;;;;;;;;;;;;7.83;60.74;97778.72;5460563;26;19940;-73
2024/04/18 09:35:15;;;;;;;;;;;;;;;7.71;61.30;97781.06;5443296;26;19997;-73
2024/04/18 09:38:06;;;;;;;;;;;;;;;7.66;61.26;97773.03;5451867;26;19940;-74
2024/04/18 09:41:00;;;;;;;;;;;;;;;7.60;61.89;97779.63;5446319;26;19937;-73
2024/04/18 09:43:52;;;;;;;;;;;;;;;7.43;63.50;97787.47;5440053;26;20384;-77
2024/04/18 09:46:42;;;;;;;;;;;;;;;7.43;64.49;97785.56;5446271;26;20257;-74
2024/04/18 09:49:34;;;;;;;;;;;;;;;7.50;63.94;97791.41;5423709;26;20288;-74
2024/04/18 09:52:24;;;;;;;;;;;;;;;7.26;63.79;97788.78;5454731;26;19929;-70
2024/04/18 09:55:15;;;;;;;;;;;;;;;7.09;65.48;97792.00;5422952;26;19928;-72
2024/04/18 09:58:05;;;;;;;;;;;;;;;7.23;65.25;97791.28;5449136;26;19960;-72
2024/04/18 10:00:55;;;;;;;;;;;;;;;7.30;65.22;97783.63;5417208;26;19997;-71
2024/04/18 10:03:45;;;;;;;;;;;;;;;7.33;64.36;97785.72;5421884;26;19935;-71
2024/04/18 10:06:39;;;;;;;;;;;;;;;7.35;63.22;97797.06;5417223;26;19940;-72
2024/04/18 10:09:29;;;;;;;;;;;;;;;7.56;62.98;97792.13;5454207;26;20078;-72
2024/04/18 10:12:21;;;;;;;;;;;;;;;7.76;63.66;97789.09;5401401;26;20453;-72
2024/04/18 10:15:11;;;;;;;;;;;;;;;8.18;63.10;97790.00;5437926;26;19943;-72
2024/04/18 10:18:01;;;;;;;;;;;;;;;8.16;62.37;97797.63;5441868;26;19985;-71
2024/04/18 10:20:51;;;;;;;;;;;;;;;8.09;61.17;97794.47;5430430;26;19928;-72
2024/04/18 10:23:49;;;;;;;;;;;;;;;8.18;60.74;97791.91;5437554;26;19935;-72
2024/04/18 10:26:40;;;;;;;;;;;;;;;8.14;61.78;97794.41;5435288;26;20265;-73
2024/04/18 10:29:30;;;;;;;;;;;;;;;8.19;61.24;97794.31;5443166;26;19945;-72
2024/04/18 10:32:19;;;;;;;;;;;;;;;8.39;61.36;97791.25;5442723;26;19929;-72
2024/04/18 10:35:10;;;;;;;;;;;;;;;8.34;59.49;97783.19;5438231;26;19968;-72
2024/04/18 10:38:02;;;;;;;;;;;;;;;8.20;59.42;97790.50;5435381;26;19929;-72
2024/04/18 10:41:01;;;;;;;;;;;;;;;8.23;58.55;97787.19;5446266;26;19928;-72
2024/04/18 10:43:51;;;;;;;;;;;;;;;8.42;58.80;97795.28;5446180;26;19941;-72
2024/04/18 10:46:41;;;;;;;;;;;;;;;8.56;58.46;97793.38;5416937;26;19932;-72
2024/04/18 10:49:31;;;;;;;;;;;;;;;8.73;57.71;97789.25;5412081;26;19929;-72
2024/04/18 10:52:21;;;;;;;;;;;;;;;9.03;56.60;97785.91;5419049;26;19928;-71
2024/04/18 10:55:10;;;;;;;;;;;;;;;9.39;55.05;97775.06;5427192;26;19944;-71
2024/04/18 10:58:04;;;;;;;;;;;;;;;9.25;54.05;97787.88;5425879;26;19954;-71
2024/04/18 11:00:57;;;;;;;;;;;;;;;9.20;55.68;97777.13;5454202;26;19997;-71
2024/04/18 11:03:51;;;;;;;;;;;;;;;9.15;56.34;97790.78;5449036;26;19928;-71
2024/04/18 11:06:41;;;;;;;;;;;;;;;9.02;57.94;97788.94;5441205;26;19961;-71
2024/04/18 11:09:33;;;;;;;;;;;;;;;8.89;57.35;97787.81;5404633;26;19929;-71
2024/04/18 11:12:23;;;;;;;;;;;;;;;8.61;58.67;97787.06;5424027;26;19975;-71
2024/04/18 11:15:17;;;;;;;;;;;;;;;8.40;58.92;97790.16;5459718;26;19993;-71
2024/04/18 11:18:07;;;;;;;;;;;;;;;8.34;59.06;97791.31;5427039;26;19929;-72
2024/04/18 11:20:57;;;;;;;;;;;;;;;8.48;56.89;97790.56;5436742;26;19956;-73
2024/04/18 11:23:47;;;;;;;;;;;;;;;8.39;57.06;97785.84;5409154;26;19941;-71
2024/04/18 11:26:40;;;;;;;;;;;;;;;8.40;56.30;97790.16;5415247;26;19928;-71
2024/04/18 11:29:30;;;;;;;;;;;;;;;8.68;56.19;97789.34;5418477;26;19969;-73
2024/04/18 11:32:22;;;;;;;;;;;;;;;8.82;53.94;97782.81;5411748;26;19937;-72
2024/04/18 11:35:12;;;;;;;;;;;;;;;8.85;54.29;97782.22;5446713;26;19935;-70
2024/04/18 11:38:08;;;;;;;;;;;;;;;9.09;54.13;97779.25;5455327;26;19929;-71
2024/04/18 11:40:59;;;;;;;;;;;;;;;9.28;51.68;97784.56;5447935;26;19964;-71
2024/04/18 11:43:48;;;;;;;;;;;;;;;9.47;49.82;97780.88;5449062;26;19928;-70
2024/04/18 11:46:39;;;;;;;;;;;;;;;9.60;47.95;97774.59;5423729;26;19935;-71
2024/04/18 11:49:34;;;;;;;;;;;;;;;9.70;45.28;97779.78;5446973;26;19928;-71
2024/04/18 11:52:24;;;;;;;;;;;;;;;10.01;45.67;97765.44;5447505;26;19944;-72
2024/04/18 11:55:17;;;;;;;;;;;;;;;10.22;46.48;97774.66;5421944;26;19940;-71
2024/04/18 11:58:07;;;;;;;;;;;;;;;10.26;45.80;97772.16;5425602;26;19994;-71
2024/04/18 12:00:56;;;;;;;;;;;;;;;10.13;46.60;97773.81;5435576;26;19934;-71
2024/04/18 12:04:02;;;;;;;;;;;;;;;10.16;46.84;97778.63;5424429;26;20284;-79
2024/04/18 12:06:54;;;;;;;;;;;;;;;10.03;48.06;97787.66;5415027;26;20395;-78
2024/04/18 12:09:53;;;;;;;;;;;;;;;9.68;51.30;97799.06;5435933;26;19940;-78
2024/04/18 12:12:43;;;;;;;;;;;;;;;9.74;52.54;97804.38;5406027;26;20004;-74
2024/04/18 12:15:42;;;;;;;;;;;;;;;9.66;55.01;97808.63;5445243;26;19932;-74
2024/04/18 12:18:51;;;;;;;;;;;;;;;9.80;55.84;97805.84;5445174;26;20337;-75
2024/04/18 12:21:45;;;;;;;;;;;;;;;9.93;55.21;97800.34;5418163;26;19937;-72
2024/04/18 12:24:37;;;;;;;;;;;;;;;9.70;51.91;97818.56;5444864;26;20047;-76
2024/04/18 12:27:30;;;;;;;;;;;;;;;9.60;51.02;97815.28;5423223;26;20315;-77
2024/04/18 12:30:20;;;;;;;;;;;;;;;9.31;52.17;97823.78;5441029;26;19929;-75
2024/04/18 12:33:10;;;;;;;;;;;;;;;9.44;50.95;97825.69;5417147;26;20428;-76
2024/04/18 12:36:00;;;;;;;;;;;;;;;9.28;50.34;97821.72;5430270;26;19948;-75
2024/04/18 12:38:50;;;;;;;;;;;;;;;9.24;50.47;97824.22;5417892;26;19928;-74
2024/04/18 12:41:42;;;;;;;;;;;;;;;9.52;50.95;97821.44;5419278;26;20345;-75
2024/04/18 12:44:32;;;;;;;;;;;;;;;9.81;51.65;97813.69;5438923;26;19935;-75
2024/04/18 12:47:41;;;;;;;;;;;;;;;10.07;46.96;97815.78;5428054;26;20326;-74
2024/04/18 12:50:40;;;;;;;;;;;;;;;10.07;47.15;97813.06;5439591;26;19940;-76
2024/04/18 12:53:32;;;;;;;;;;;;;;;10.20;46.70;97818.41;5412615;26;20249;-77
2024/04/18 12:56:27;;;;;;;;;;;;;;;10.16;47.23;97814.69;5422929;26;20176;-76
2024/04/18 12:59:39;;;;;;;;;;;;;;;10.08;45.75;97815.47;5444301;26;20609;-77
2024/04/18 13:02:45;;;;;;;;;;;;;;;10.02;44.42;97816.72;5413438;26;20514;-76
2024/04/18 13:05:35;;;;;;;;;;;;;;;10.11;45.28;97822.19;5410533;26;20001;-77
2024/04/18 13:08:25;;;;;;;;;;;;;;;10.20;44.68;97823.84;5424622;26;19929;-77
2024/04/18 13:11:21;;;;;;;;;;;;;;;10.34;46.10;97815.66;5421116;26;20311;-76
2024/04/18 13:14:24;;;;;;;;;;;;;;;10.50;46.41;97818.75;5421582;26;19929;-69
2024/04/18 13:17:16;;;;;;;;;;;;;;;10.49;46.92;97814.41;5424588;26;19929;-70
2024/04/18 13:20:09;;;;;;;;;;;;;;;10.45;47.65;97811.53;5416849;26;19928;-71
2024/04/18 13:22:59;;;;;;;;;;;;;;;10.35;43.97;97811.00;5442824;26;19928;-72
2024/04/18 13:25:50;;;;;;;;;;;;;;;10.35;43.27;97811.81;5446975;26;19935;-72
2024/04/18 13:28:42;;;;;;;;;;;;;;;10.40;44.48;97803.53;5420305;26;19940;-73
2024/04/18 13:31:32;;;;;;;;;;;;;;;10.68;44.81;97795.97;5415089;26;19957;-72
2024/04/18 13:34:42;;;;;;;;;;;;;;;10.65;45.11;97801.22;5431185;26;19947;-72
2024/04/18 13:37:37;;;;;;;;;;;;;;;10.79;43.70;97793.75;5445393;26;19941;-71
2024/04/18 13:40:39;;;;;;;;;;;;;;;10.70;43.80;97791.00;5444576;26;19960;-72
2024/04/18 13:43:29;;;;;;;;;;;;;;;10.66;40.24;97795.50;5442007;26;19935;-72
2024/04/18 13:46:28;;;;;;;;;;;;;;;10.45;41.09;97805.31;5425455;26;19960;-73
2024/04/18 13:49:21;;;;;;;;;;;;;;;10.25;41.19;97795.78;5448243;26;19986;-73
2024/04/18 13:52:16;;;;;;;;;;;;;;;10.36;41.50;97791.69;5417024;26;19944;-72
2024/04/18 13:55:25;;;;;;;;;;;;;;;10.62;41.09;97785.56;5421213;26;20653;-73
2024/04/18 13:58:15;;;;;;;;;;;;;;;10.77;42.78;97781.63;5446713;26;20173;-71
2024/04/18 14:01:17;;;;;;;;;;;;;;;10.71;42.98;97781.75;5445886;26;20815;-72
2024/04/18 14:04:23;;;;;;;;;;;;;;;10.74;43.02;97785.75;5442550;26;19936;-73
2024/04/18 14:07:18;;;;;;;;;;;;;;;10.76;42.07;97788.97;5445738;26;19956;-73
2024/04/18 14:10:08;;;;;;;;;;;;;;;10.55;42.99;97794.19;5444939;26;19932;-74
2024/04/18 14:13:19;;;;;;;;;;;;;;;10.58;43.28;97793.53;5443883;26;20334;-75
2024/04/18 14:19:17;;;;;;;;;;;;;;;10.37;45.12;97808.78;5447569;26;20452;-75
2024/04/18 14:22:27;;;;;;;;;;;;;;;10.44;45.70;97818.09;5414732;26;19943;-72
2024/04/18 14:25:17;;;;;;;;;;;;;;;10.58;45.81;97811.75;5451685;26;19932;-73
2024/04/18 14:28:27;;;;;;;;;;;;;;;10.59;44.93;97816.06;5443315;26;19958;-75
2024/04/18 14:31:40;;;;;;;;;;;;;;;10.45;45.18;97818.91;5448516;26;19936;-74
2024/04/18 14:34:44;;;;;;;;;;;;;;;10.48;45.89;97829.13;5430586;26;19935;-79
2024/04/18 14:37:37;;;;;;;;;;;;;;;10.35;45.86;97830.03;5452950;26;19943;-83
2024/04/18 14:40:26;;;;;;;;;;;;;;;10.01;48.58;97863.94;5420192;26;20015;-86
2024/04/18 14:43:16;;;;;;;;;;;;;;;9.61;51.52;97868.41;5423097;26;19956;-86
2024/04/18 14:46:06;;;;;;;;;;;;;;;9.00;55.04;97880.53;5437154;26;19928;-85
2024/04/18 14:49:11;;;;;;;;;;;;;;;8.77;56.86;97880.44;5448236;26;19936;-87
2024/04/18 14:52:01;;;;;;;;;;;;;;;8.51;59.72;97892.84;5443782;26;19940;-87
2024/04/18 14:54:53;;;;;;;;;;;;;;;8.46;62.48;97899.16;5432769;26;19932;-91
2024/04/18 14:57:53;;;;;;;;;;;;;;;8.30;64.45;97906.69;5478651;26;19931;-78
2024/04/18 15:01:03;;;;;;;;;;;;;;;8.14;64.32;97883.69;5437236;26;19936;-79
2024/04/18 15:03:53;;;;;;;;;;;;;;;8.09;64.99;97884.56;5437081;26;19976;-77
2024/04/18 15:06:43;;;;;;;;;;;;;;;8.29;64.05;97875.31;5423458;26;19982;-80
2024/04/18 15:09:33;;;;;;;;;;;;;;;8.24;61.91;97871.91;5431538;26;19929;-80
2024/04/18 15:12:27;;;;;;;;;;;;;;;8.36;62.42;97867.66;5442028;26;19928;-79
2024/04/18 15:15:34;;;;;;;;;;;;;;;8.54;61.66;97865.97;5460003;26;19997;-78
2024/04/18 15:18:24;;;;;;;;;;;;;;;8.80;64.10;97863.59;5407753;26;19929;-80
2024/04/18 15:21:34;;;;;;;;;;;;;;;8.72;59.05;97864.28;5433942;26;19928;-78
2024/04/18 15:24:33;;;;;;;;;;;;;;;9.03;59.43;97864.50;5406466;26;19943;-77
2024/04/18 15:27:25;;;;;;;;;;;;;;;9.04;60.45;97865.28;5421448;26;19940;-78
2024/04/18 15:30:15;;;;;;;;;;;;;;;9.32;58.91;97872.31;5455050;26;19936;-74